createdAt,value
2023-01-21T00:02:13.468Z,18.33
2023-01-21T00:04:40.056Z,16.77
2023-01-21T00:07:07.368Z,18.02
2023-01-21T00:09:34.282Z,17.63
2023-01-21T00:12:02.960Z,17.02
2023-01-21T00:14:29.958Z,17.20
2023-01-21T00:16:57.230Z,17.90
2023-01-21T00:19:24.571Z,18.27
2023-01-21T00:21:51.396Z,17.85
2023-01-21T00:24:18.016Z,16.83
2023-01-21T00:26:46.207Z,15.50
2023-01-21T00:29:12.705Z,17.83
2023-01-21T00:31:39.370Z,17.15
2023-01-21T00:34:05.980Z,18.13
2023-01-21T00:36:32.579Z,17.08
2023-01-21T00:38:59.671Z,17.60
2023-01-21T00:41:26.446Z,16.35
2023-01-21T00:43:53.361Z,16.88
2023-01-21T00:46:20.013Z,18.70
2023-01-21T00:48:46.715Z,17.30
2023-01-21T00:51:13.647Z,17.15
2023-01-21T00:53:43.767Z,16.85
2023-01-21T00:56:12.030Z,16.98
2023-01-21T00:58:38.993Z,17.58
2023-01-21T01:01:07.066Z,17.00
2023-01-21T01:03:33.926Z,17.05
2023-01-21T01:06:11.620Z,17.52
2023-01-21T01:08:38.425Z,16.85
2023-01-21T01:11:05.377Z,16.48
2023-01-21T01:13:33.312Z,16.98
2023-01-21T01:16:00.435Z,15.93
2023-01-21T01:18:27.841Z,16.35
2023-01-21T01:20:54.378Z,15.73
2023-01-21T01:23:21.166Z,15.75
2023-01-21T01:26:04.619Z,17.20
2023-01-21T01:28:32.060Z,16.58
2023-01-21T01:30:58.859Z,16.13
2023-01-21T01:33:26.052Z,17.00
2023-01-21T01:35:53.216Z,16.20
2023-01-21T01:38:21.210Z,16.27
2023-01-21T01:40:48.647Z,16.73
2023-01-21T01:43:15.374Z,15.88
2023-01-21T01:45:41.899Z,15.20
2023-01-21T01:48:11.222Z,15.38
2023-01-21T01:50:39.582Z,15.32
2023-01-21T01:53:08.206Z,16.92
2023-01-21T01:55:35.956Z,16.25
2023-01-21T01:58:04.055Z,16.60
2023-01-21T02:00:30.827Z,16.27
2023-01-21T02:03:16.292Z,18.02
2023-01-21T02:08:09.475Z,16.58
2023-01-21T02:10:36.580Z,16.33
2023-01-21T02:13:04.017Z,16.52
2023-01-21T02:15:38.461Z,16.42
2023-01-21T02:18:18.493Z,16.40
2023-01-21T02:20:57.272Z,17.10
2023-01-21T02:23:33.331Z,17.67
2023-01-21T02:26:08.981Z,18.42
2023-01-21T02:28:35.548Z,17.98
2023-01-21T02:31:20.903Z,18.10
2023-01-21T02:36:14.002Z,17.40
2023-01-21T02:38:52.619Z,18.42
2023-01-21T02:41:27.134Z,19.05
2023-01-21T02:44:08.185Z,18.65
2023-01-21T02:46:42.758Z,18.77
2023-01-21T02:49:21.288Z,18.90
2023-01-21T02:51:48.805Z,17.88
2023-01-21T02:54:35.459Z,18.30
2023-01-21T02:57:02.317Z,19.15
2023-01-21T02:59:28.905Z,18.27
2023-01-21T03:02:07.624Z,17.90
2023-01-21T03:04:40.369Z,18.30
2023-01-21T03:07:09.787Z,19.20
2023-01-21T03:09:36.710Z,19.45
2023-01-21T03:12:21.938Z,19.65
2023-01-21T03:15:13.452Z,19.02
2023-01-21T03:17:41.963Z,18.42
2023-01-21T03:20:21.024Z,17.48
2023-01-21T03:22:49.106Z,18.33
2023-01-21T03:25:16.804Z,18.58
2023-01-21T03:27:44.650Z,19.60
2023-01-21T03:30:16.922Z,19.73
2023-01-21T03:32:45.852Z,19.40
2023-01-21T03:35:13.855Z,19.98
2023-01-21T03:37:43.320Z,19.92
2023-01-21T03:40:20.814Z,18.60
2023-01-21T03:42:50.683Z,19.58
2023-01-21T03:45:22.336Z,19.25
2023-01-21T03:47:53.685Z,19.35
2023-01-21T03:50:22.787Z,18.73
2023-01-21T03:52:49.374Z,18.88
2023-01-21T03:55:18.093Z,18.70
2023-01-21T03:57:44.600Z,18.50
2023-01-21T04:00:12.439Z,18.88
2023-01-21T04:02:39.987Z,18.13
2023-01-21T04:05:06.822Z,18.77
2023-01-21T04:07:33.587Z,19.02
2023-01-21T04:10:00.184Z,18.80
2023-01-21T04:12:26.856Z,17.90
2023-01-21T04:14:53.509Z,17.42
2023-01-21T04:17:20.346Z,20.77
2023-01-21T04:19:47.117Z,17.90
2023-01-21T04:22:13.606Z,20.23
2023-01-21T04:24:40.224Z,18.73
2023-01-21T04:27:06.886Z,17.73
2023-01-21T04:29:33.419Z,18.65
2023-01-21T04:32:00.092Z,18.50
2023-01-21T04:34:26.724Z,19.52
2023-01-21T04:36:53.189Z,18.00
2023-01-21T04:39:19.767Z,19.73
2023-01-21T04:41:46.336Z,18.85
2023-01-21T04:44:12.967Z,18.40
2023-01-21T04:46:39.773Z,20.23
2023-01-21T04:49:06.440Z,18.48
2023-01-21T04:51:32.984Z,18.40
2023-01-21T04:53:59.623Z,20.30
2023-01-21T04:56:26.061Z,18.52
2023-01-21T04:58:52.742Z,16.73
2023-01-21T05:01:19.607Z,18.30
2023-01-21T05:03:46.303Z,17.13
2023-01-21T05:06:12.810Z,17.83
2023-01-21T05:08:39.556Z,18.42
2023-01-21T05:11:07.797Z,17.63
2023-01-21T05:13:34.652Z,18.90
2023-01-21T05:16:05.321Z,18.30
2023-01-21T05:18:32.076Z,17.75
2023-01-21T05:20:58.623Z,20.02
2023-01-21T05:23:25.217Z,17.77
2023-01-21T05:25:51.744Z,17.15
2023-01-21T05:28:18.419Z,18.70
2023-01-21T05:30:44.932Z,18.42
2023-01-21T05:33:11.762Z,19.55
2023-01-21T05:35:38.311Z,18.83
2023-01-21T05:38:04.962Z,18.50
2023-01-21T05:40:31.690Z,19.73
2023-01-21T05:42:58.232Z,18.92
2023-01-21T05:45:25.087Z,18.45
2023-01-21T05:47:51.870Z,18.27
2023-01-21T05:50:18.779Z,18.85
2023-01-21T05:52:45.610Z,18.75
2023-01-21T05:55:12.218Z,18.40
2023-01-21T05:57:38.886Z,19.10
2023-01-21T06:00:05.860Z,18.52
2023-01-21T06:02:32.546Z,18.08
2023-01-21T06:04:59.307Z,19.08
2023-01-21T06:07:26.194Z,18.88
2023-01-21T06:09:52.745Z,18.30
2023-01-21T06:12:19.378Z,18.17
2023-01-21T06:14:46.001Z,18.48
2023-01-21T06:17:12.803Z,17.58
2023-01-21T06:19:39.256Z,17.80
2023-01-21T06:22:05.947Z,18.10
2023-01-21T06:24:32.725Z,18.80
2023-01-21T06:26:59.414Z,18.00
2023-01-21T06:29:26.174Z,19.10
2023-01-21T06:31:52.842Z,18.40
2023-01-21T06:34:19.652Z,18.55
2023-01-21T06:36:46.248Z,19.52
2023-01-21T06:39:12.741Z,18.25
2023-01-21T06:41:39.432Z,17.25
2023-01-21T06:44:05.991Z,17.25
2023-01-21T06:46:32.772Z,18.20
2023-01-21T06:48:59.550Z,17.52
2023-01-21T06:51:26.460Z,17.75
2023-01-21T06:53:53.215Z,18.27
2023-01-21T06:56:20.200Z,19.55
2023-01-21T06:58:46.911Z,18.05
2023-01-21T07:01:13.690Z,17.92
2023-01-21T07:03:40.152Z,18.30
2023-01-21T07:06:06.936Z,18.75
2023-01-21T07:08:33.617Z,18.30
2023-01-21T07:11:00.204Z,17.38
2023-01-21T07:13:26.859Z,17.52
2023-01-21T07:15:53.565Z,18.15
2023-01-21T07:18:20.130Z,17.08
2023-01-21T07:20:46.798Z,17.63
2023-01-21T07:23:13.497Z,18.60
2023-01-21T07:25:40.238Z,17.65
2023-01-21T07:28:06.895Z,17.17
2023-01-21T07:30:33.874Z,17.85
2023-01-21T07:33:05.025Z,17.67
2023-01-21T07:35:31.624Z,16.80
2023-01-21T07:37:58.140Z,17.98
2023-01-21T07:40:24.932Z,18.58
2023-01-21T07:42:52.650Z,18.65
2023-01-21T07:45:19.799Z,18.02
2023-01-21T07:47:46.439Z,19.27
2023-01-21T07:50:13.177Z,19.02
2023-01-21T07:52:39.652Z,18.52
2023-01-21T07:55:07.920Z,17.75
2023-01-21T07:57:34.769Z,18.13
2023-01-21T08:00:01.466Z,18.55
2023-01-21T08:02:38.286Z,19.42
2023-01-21T08:05:05.208Z,17.77
2023-01-21T08:07:31.836Z,18.98
2023-01-21T08:09:58.624Z,21.10
2023-01-21T08:12:27.128Z,18.80
2023-01-21T08:14:54.337Z,19.75
2023-01-21T08:17:20.889Z,18.08
2023-01-21T08:19:47.616Z,19.00
2023-01-21T08:22:14.271Z,20.45
2023-01-21T08:24:40.921Z,18.27
2023-01-21T08:27:07.491Z,19.10
2023-01-21T08:29:34.078Z,18.15
2023-01-21T08:32:00.668Z,21.70
2023-01-21T08:34:27.287Z,20.75
2023-01-21T08:36:53.798Z,19.42
2023-01-21T08:39:20.552Z,21.27
2023-01-21T08:41:48.231Z,20.20
2023-01-21T08:44:14.728Z,20.75
2023-01-21T08:46:41.390Z,19.10
2023-01-21T08:49:08.035Z,19.10
2023-01-21T08:51:34.667Z,20.52
2023-01-21T08:54:01.345Z,20.40
2023-01-21T08:56:28.017Z,21.05
2023-01-21T08:58:55.733Z,20.13
2023-01-21T09:01:22.535Z,21.38
2023-01-21T09:03:49.194Z,20.27
2023-01-21T09:06:15.690Z,20.83
2023-01-21T09:08:42.417Z,20.63
2023-01-21T09:11:10.209Z,18.35
2023-01-21T09:13:37.729Z,20.20
2023-01-21T09:16:11.604Z,19.55
2023-01-21T09:18:38.259Z,20.35
2023-01-21T09:21:05.828Z,19.95
2023-01-21T09:23:34.587Z,30.85
2023-01-21T09:26:24.324Z,41.08
2023-01-21T09:28:54.823Z,35.70
2023-01-21T09:31:22.009Z,27.33
2023-01-21T09:33:49.864Z,24.30
2023-01-21T09:36:19.127Z,21.48
2023-01-21T09:38:46.427Z,20.23
2023-01-21T09:41:13.481Z,19.35
2023-01-21T09:43:42.790Z,19.60
2023-01-21T09:46:15.191Z,19.60
2023-01-21T09:48:43.875Z,18.98
2023-01-21T09:51:19.735Z,20.35
2023-01-21T09:53:50.754Z,18.77
2023-01-21T09:56:22.839Z,19.58
2023-01-21T09:58:53.873Z,18.80
2023-01-21T10:01:34.236Z,19.17
2023-01-21T10:04:19.555Z,21.02
2023-01-21T10:06:50.118Z,19.15
2023-01-21T10:09:16.659Z,17.77
2023-01-21T10:11:46.403Z,18.23
2023-01-21T10:14:22.601Z,18.13
2023-01-21T10:17:05.362Z,17.83
2023-01-21T10:19:41.514Z,18.23
2023-01-21T10:22:13.901Z,17.58
2023-01-21T10:24:46.313Z,18.25
2023-01-21T10:27:17.149Z,18.20
2023-01-21T10:29:44.492Z,17.48
2023-01-21T10:32:17.003Z,19.38
2023-01-21T10:34:48.726Z,17.95
2023-01-21T10:37:20.320Z,18.35
2023-01-21T10:39:49.850Z,17.30
2023-01-21T10:42:21.589Z,17.73
2023-01-21T10:44:51.526Z,18.27
2023-01-21T10:47:32.983Z,18.45
2023-01-21T10:50:04.400Z,18.25
2023-01-21T10:52:34.883Z,17.55
2023-01-21T10:55:13.225Z,17.10
2023-01-21T10:57:55.066Z,16.98
2023-01-21T11:00:26.132Z,18.77
2023-01-21T11:02:58.719Z,18.33
2023-01-21T11:05:25.663Z,18.00
2023-01-21T11:07:52.646Z,18.45
2023-01-21T11:10:26.260Z,17.52
2023-01-21T11:12:56.451Z,18.50
2023-01-21T11:15:23.684Z,17.67
2023-01-21T11:17:56.647Z,16.95
2023-01-21T11:20:28.259Z,17.73
2023-01-21T11:22:54.925Z,17.55
2023-01-21T11:25:38.795Z,18.02
2023-01-21T11:28:06.410Z,18.33
2023-01-21T11:30:48.717Z,17.15
2023-01-21T11:33:26.711Z,17.23
2023-01-21T11:35:54.108Z,17.73
2023-01-21T11:38:29.780Z,17.83
2023-01-21T11:41:04.251Z,17.42
2023-01-21T11:43:41.212Z,18.13
2023-01-21T11:46:28.691Z,18.70
2023-01-21T11:48:56.661Z,19.00
2023-01-21T11:51:23.428Z,16.13
2023-01-21T11:54:06.418Z,17.30
2023-01-21T11:56:33.235Z,16.38
2023-01-21T11:58:59.777Z,17.48
2023-01-21T12:01:26.919Z,17.13
2023-01-21T12:04:00.095Z,17.92
2023-01-21T12:06:30.888Z,18.20
2023-01-21T12:08:59.964Z,18.25
2023-01-21T12:11:27.578Z,17.10
2023-01-21T12:14:07.801Z,18.05
2023-01-21T12:16:35.617Z,15.93
2023-01-21T12:19:05.172Z,16.73
2023-01-21T12:21:34.532Z,16.73
2023-01-21T12:24:08.938Z,16.70
2023-01-21T12:26:45.643Z,15.25
2023-01-21T12:29:30.860Z,15.07
2023-01-21T12:32:04.049Z,16.67
2023-01-21T12:34:40.136Z,16.88
2023-01-21T12:37:09.524Z,17.00
2023-01-21T12:39:37.403Z,16.35
2023-01-21T12:42:09.810Z,15.40
2023-01-21T12:44:36.413Z,17.88
2023-01-21T12:47:06.621Z,16.73
2023-01-21T12:49:52.181Z,13.60
2023-01-21T12:52:24.663Z,14.70
2023-01-21T12:54:58.933Z,14.68
2023-01-21T12:57:38.250Z,14.80
2023-01-21T13:00:21.123Z,14.48
2023-01-21T13:02:56.717Z,13.85
2023-01-21T13:05:32.890Z,14.65
2023-01-21T13:08:05.494Z,13.93
2023-01-21T13:10:41.161Z,13.13
2023-01-21T13:13:23.773Z,12.50
2023-01-21T13:15:52.860Z,13.02
2023-01-21T13:18:25.326Z,14.10
2023-01-21T13:20:53.860Z,12.82
2023-01-21T13:23:31.013Z,12.30
2023-01-21T13:26:09.922Z,12.60
2023-01-21T13:28:42.646Z,13.75
2023-01-21T13:31:21.600Z,11.63
2023-01-21T13:34:00.243Z,11.63
2023-01-21T13:36:26.921Z,11.75
2023-01-21T13:38:53.430Z,11.07
2023-01-21T13:41:23.136Z,10.48
2023-01-21T13:44:02.856Z,9.02
2023-01-21T13:46:35.911Z,8.68
2023-01-21T13:49:22.187Z,9.80
2023-01-21T13:54:15.575Z,10.20
2023-01-21T13:56:59.006Z,10.77
2023-01-21T13:59:29.853Z,10.63
2023-01-21T14:02:01.778Z,10.10
2023-01-21T14:04:37.382Z,8.20
2023-01-21T14:07:07.079Z,7.65
2023-01-21T14:09:41.060Z,8.52
2023-01-21T14:12:11.955Z,8.45
2023-01-21T14:14:57.221Z,9.85
2023-01-21T14:17:30.936Z,9.18
2023-01-21T14:20:00.814Z,9.23
2023-01-21T14:22:27.456Z,8.65
2023-01-21T14:25:20.105Z,9.27
2023-01-21T14:28:05.263Z,9.30
2023-01-21T14:30:47.322Z,8.80
2023-01-21T14:33:45.970Z,10.27
2023-01-21T14:36:22.773Z,9.85
2023-01-21T14:38:49.570Z,9.27
2023-01-21T14:41:16.420Z,11.65
2023-01-21T14:43:44.303Z,12.15
2023-01-21T14:46:24.657Z,11.55
2023-01-21T14:48:58.481Z,11.30
2023-01-21T14:51:27.502Z,11.48
2023-01-21T14:54:06.470Z,10.23
2023-01-21T14:56:34.222Z,11.02
2023-01-21T14:59:23.341Z,11.77
2023-01-21T15:01:57.872Z,12.15
2023-01-21T15:04:26.208Z,11.07
2023-01-21T15:06:54.109Z,12.23
2023-01-21T15:09:27.361Z,11.23
2023-01-21T15:11:57.215Z,11.55
2023-01-21T15:14:26.167Z,12.05
2023-01-21T15:16:53.137Z,11.50
2023-01-21T15:19:23.104Z,11.98
2023-01-21T15:22:03.397Z,11.98
2023-01-21T15:24:35.779Z,11.88
2023-01-21T15:27:16.027Z,12.85
2023-01-21T15:29:54.661Z,12.18
2023-01-21T15:32:26.195Z,13.45
2023-01-21T15:34:55.333Z,13.48
2023-01-21T15:37:22.927Z,12.63
2023-01-21T15:39:55.093Z,11.90
2023-01-21T15:42:44.179Z,12.25
2023-01-21T15:45:11.132Z,11.38
2023-01-21T15:47:56.399Z,12.55
2023-01-21T15:50:27.961Z,13.68
2023-01-21T15:52:54.725Z,12.70
2023-01-21T15:55:21.299Z,11.93
2023-01-21T15:57:54.805Z,12.85
2023-01-21T16:00:29.736Z,11.90
2023-01-21T16:03:04.837Z,13.02
2023-01-21T16:05:40.738Z,12.73
2023-01-21T16:08:26.225Z,12.60
2023-01-21T16:13:29.050Z,12.00
2023-01-21T16:15:55.896Z,11.65
2023-01-21T16:18:25.705Z,12.70
2023-01-21T16:20:54.079Z,12.15
2023-01-21T16:23:22.051Z,13.18
2023-01-21T16:25:49.795Z,11.18
2023-01-21T16:28:16.609Z,13.43
2023-01-21T16:30:59.485Z,12.32
2023-01-21T16:33:26.543Z,12.38
2023-01-21T16:35:56.133Z,13.20
2023-01-21T16:38:24.779Z,14.30
2023-01-21T16:41:00.288Z,12.65
2023-01-21T16:43:27.565Z,12.73
2023-01-21T16:45:55.620Z,13.32
2023-01-21T16:48:24.604Z,12.60
2023-01-21T16:50:51.570Z,13.85
2023-01-21T16:53:18.941Z,13.48
2023-01-21T16:55:49.690Z,13.88
2023-01-21T16:58:20.482Z,13.77
2023-01-21T17:00:58.828Z,12.82
2023-01-21T17:03:25.538Z,13.27
2023-01-21T17:05:53.757Z,13.02
2023-01-21T17:08:20.641Z,14.07
2023-01-21T17:10:52.883Z,12.90
2023-01-21T17:13:19.679Z,13.65
2023-01-21T17:15:57.442Z,14.02
2023-01-21T17:18:28.910Z,13.13
2023-01-21T17:21:10.887Z,13.80
2023-01-21T17:23:51.643Z,13.23
2023-01-21T17:26:23.523Z,13.65
2023-01-21T17:28:57.984Z,13.93
2023-01-21T17:31:28.953Z,14.57
2023-01-21T17:34:11.691Z,13.50
2023-01-21T17:36:38.898Z,13.45
2023-01-21T17:39:07.003Z,13.98
2023-01-21T17:41:37.554Z,13.27
2023-01-21T17:44:06.113Z,13.45
2023-01-21T17:46:33.181Z,14.35
2023-01-21T17:49:07.568Z,15.05
2023-01-21T17:51:34.733Z,15.27
2023-01-21T17:54:05.630Z,14.55
2023-01-21T17:56:35.074Z,13.45
2023-01-21T17:59:04.741Z,14.38
2023-01-21T18:01:31.794Z,14.10
2023-01-21T18:03:58.496Z,14.15
2023-01-21T18:06:27.749Z,13.65
2023-01-21T18:08:56.416Z,14.73
2023-01-21T18:11:23.248Z,13.82
2023-01-21T18:13:50.438Z,15.57
2023-01-21T18:16:17.184Z,13.57
2023-01-21T18:18:44.003Z,14.77
2023-01-21T18:21:17.115Z,14.82
2023-01-21T18:23:43.684Z,14.68
2023-01-21T18:26:16.950Z,14.98
2023-01-21T18:28:43.574Z,15.15
2023-01-21T18:31:10.448Z,14.68
2023-01-21T18:33:37.338Z,14.57
2023-01-21T18:36:03.971Z,14.02
2023-01-21T18:38:33.533Z,15.73
2023-01-21T18:41:00.522Z,15.43
2023-01-21T18:43:27.144Z,14.73
2023-01-21T18:45:54.659Z,15.70
2023-01-21T18:48:27.552Z,16.27
2023-01-21T18:50:54.406Z,16.55
2023-01-21T18:53:21.087Z,15.63
2023-01-21T18:55:50.014Z,16.20
2023-01-21T18:58:17.005Z,15.23
2023-01-21T19:00:43.720Z,16.45
2023-01-21T19:03:13.476Z,17.70
2023-01-21T19:05:41.007Z,17.92
2023-01-21T19:08:28.569Z,16.20
2023-01-21T19:10:55.416Z,16.85
2023-01-21T19:13:22.008Z,17.65
2023-01-21T19:15:49.239Z,17.42
2023-01-21T19:18:16.764Z,16.33
2023-01-21T19:20:45.329Z,16.80
2023-01-21T19:23:15.828Z,16.50
2023-01-21T19:25:46.805Z,17.27
2023-01-21T19:28:13.544Z,15.93
2023-01-21T19:30:45.135Z,16.30
2023-01-21T19:33:12.382Z,16.02
2023-01-21T19:35:40.045Z,17.45
2023-01-21T19:38:11.049Z,17.98
2023-01-21T19:40:37.875Z,18.55
2023-01-21T19:43:04.523Z,18.88
2023-01-21T19:45:31.285Z,17.58
2023-01-21T19:47:57.990Z,15.82
2023-01-21T19:50:25.544Z,14.23
2023-01-21T19:52:52.950Z,16.45
2023-01-21T19:55:23.810Z,16.55
2023-01-21T19:57:57.281Z,14.55
2023-01-21T20:00:25.342Z,13.70
2023-01-21T20:02:51.998Z,14.30
2023-01-21T20:05:19.068Z,14.32
2023-01-21T20:07:46.799Z,15.00
2023-01-21T20:10:17.930Z,14.25
2023-01-21T20:12:44.636Z,14.55
2023-01-21T20:15:35.674Z,14.90
2023-01-21T20:18:28.016Z,17.80
2023-01-21T20:20:57.080Z,15.32
2023-01-21T20:23:25.427Z,14.77
2023-01-21T20:25:53.832Z,14.68
2023-01-21T20:28:21.506Z,13.98
2023-01-21T20:30:49.228Z,15.02
2023-01-21T20:33:50.938Z,15.43
2023-01-21T20:36:28.070Z,14.73
2023-01-21T20:38:57.878Z,15.38
2023-01-21T20:41:25.044Z,14.43
2023-01-21T20:43:54.726Z,16.65
2023-01-21T20:46:22.668Z,15.32
2023-01-21T20:48:54.179Z,14.77
2023-01-21T20:51:21.417Z,15.82
2023-01-21T20:53:48.426Z,15.73
2023-01-21T20:56:19.385Z,14.30
2023-01-21T20:58:47.893Z,15.60
2023-01-21T21:01:15.515Z,15.38
2023-01-21T21:03:42.287Z,14.68
2023-01-21T21:06:13.356Z,15.18
2023-01-21T21:08:41.220Z,15.13
2023-01-21T21:11:07.990Z,15.55
2023-01-21T21:13:34.815Z,16.48
2023-01-21T21:16:01.860Z,15.73
2023-01-21T21:18:28.770Z,15.48
2023-01-21T21:20:55.404Z,15.57
2023-01-21T21:23:22.383Z,16.23
2023-01-21T21:25:49.087Z,23.77
2023-01-21T21:28:17.038Z,21.48
2023-01-21T21:30:44.534Z,19.77
2023-01-21T21:33:15.457Z,17.02
2023-01-21T21:35:44.658Z,18.73
2023-01-21T21:38:18.407Z,17.90
2023-01-21T21:40:45.688Z,16.80
2023-01-21T21:43:33.732Z,18.13
2023-01-21T21:46:28.720Z,17.60
2023-01-21T21:48:55.507Z,17.50
2023-01-21T21:51:22.637Z,15.05
2023-01-21T21:53:49.826Z,12.57
2023-01-21T21:56:17.585Z,11.80
2023-01-21T21:58:44.249Z,12.55
2023-01-21T22:01:10.837Z,12.15
2023-01-21T22:03:37.730Z,12.52
2023-01-21T22:06:04.605Z,12.35
2023-01-21T22:08:35.982Z,12.45
2023-01-21T22:11:04.675Z,11.02
2023-01-21T22:13:32.081Z,11.20
2023-01-21T22:16:00.223Z,12.55
2023-01-21T22:18:27.480Z,11.75
2023-01-21T22:21:05.032Z,11.88
2023-01-21T22:23:32.760Z,12.68
2023-01-21T22:26:01.946Z,11.07
2023-01-21T22:28:28.987Z,12.32
2023-01-21T22:30:56.154Z,12.70
2023-01-21T22:33:22.786Z,12.10
2023-01-21T22:35:49.817Z,13.05
2023-01-21T22:38:16.621Z,12.35
2023-01-21T22:40:43.205Z,12.63
2023-01-21T22:43:10.294Z,13.68
2023-01-21T22:45:37.475Z,13.18
2023-01-21T22:48:04.059Z,14.43
2023-01-21T22:50:30.694Z,13.15
2023-01-21T22:52:57.609Z,14.68
2023-01-21T22:55:24.265Z,14.00
2023-01-21T22:57:51.252Z,13.38
2023-01-21T23:00:33.239Z,14.63
2023-01-21T23:02:59.970Z,14.48
2023-01-21T23:05:27.706Z,14.10
2023-01-21T23:07:54.801Z,18.10
2023-01-21T23:10:21.621Z,14.02
2023-01-21T23:12:48.607Z,13.70
2023-01-21T23:15:15.515Z,16.55
2023-01-21T23:17:42.403Z,14.40
2023-01-21T23:20:09.555Z,13.93
2023-01-21T23:22:36.605Z,12.63
2023-01-21T23:25:03.278Z,14.38
2023-01-21T23:27:29.817Z,15.07
2023-01-21T23:29:56.430Z,14.85
2023-01-21T23:32:23.189Z,13.32
2023-01-21T23:34:50.072Z,16.92
2023-01-21T23:37:16.719Z,14.82
2023-01-21T23:39:43.596Z,15.45
2023-01-21T23:42:10.260Z,15.35
2023-01-21T23:44:36.850Z,12.63
2023-01-21T23:47:03.675Z,16.52
2023-01-21T23:49:30.131Z,13.93
2023-01-21T23:51:56.663Z,13.60
2023-01-21T23:54:23.309Z,14.30
2023-01-21T23:56:49.902Z,14.23
2023-01-21T23:59:16.670Z,13.23
